createdAt,value
2023-02-24T00:01:52.715Z,61.91
2023-02-24T00:04:21.140Z,61.78
2023-02-24T00:06:48.819Z,62.34
2023-02-24T00:09:19.813Z,62.03
2023-02-24T00:11:55.945Z,61.70
2023-02-24T00:14:25.030Z,61.99
2023-02-24T00:16:53.440Z,61.99
2023-02-24T00:19:23.966Z,61.70
2023-02-24T00:21:52.078Z,61.31
2023-02-24T00:24:19.428Z,61.39
2023-02-24T00:26:46.492Z,62.38
2023-02-24T00:29:16.337Z,63.20
2023-02-24T00:31:43.454Z,63.08
2023-02-24T00:34:12.895Z,64.79
2023-02-24T00:36:40.209Z,64.58
2023-02-24T00:39:09.946Z,65.13
2023-02-24T00:41:43.183Z,64.41
2023-02-24T00:44:14.983Z,64.72
2023-02-24T00:46:47.338Z,65.35
2023-02-24T00:49:27.443Z,64.75
2023-02-24T00:51:54.574Z,65.16
2023-02-24T00:54:25.604Z,65.18
2023-02-24T00:56:52.630Z,65.73
2023-02-24T00:59:24.344Z,65.13
2023-02-24T01:02:07.284Z,65.39
2023-02-24T01:04:34.944Z,65.09
2023-02-24T01:07:02.199Z,66.52
2023-02-24T01:09:31.720Z,68.40
2023-02-24T01:12:17.490Z,68.61
2023-02-24T01:14:47.939Z,70.78
2023-02-24T01:17:16.253Z,73.47
2023-02-24T01:19:44.489Z,70.26
2023-02-24T01:22:15.717Z,70.31
2023-02-24T01:24:44.406Z,68.46
2023-02-24T01:27:13.565Z,68.46
2023-02-24T01:29:41.664Z,68.46
2023-02-24T01:32:17.484Z,68.83
2023-02-24T01:34:44.967Z,68.38
2023-02-24T01:37:16.737Z,69.78
2023-02-24T01:39:45.327Z,69.49
2023-02-24T01:42:19.893Z,68.49
2023-02-24T01:44:47.004Z,67.71
2023-02-24T01:47:16.663Z,67.12
2023-02-24T01:49:48.206Z,67.11
2023-02-24T01:52:23.821Z,66.94
2023-02-24T01:54:55.361Z,66.72
2023-02-24T01:57:26.225Z,66.53
2023-02-24T02:00:02.300Z,66.29
2023-02-24T02:02:29.802Z,66.01
2023-02-24T02:05:06.023Z,66.07
2023-02-24T02:07:33.405Z,65.92
2023-02-24T02:10:04.525Z,66.35
2023-02-24T02:12:37.280Z,69.07
2023-02-24T02:15:06.554Z,68.59
2023-02-24T02:17:37.151Z,67.22
2023-02-24T02:20:16.353Z,68.11
2023-02-24T02:23:01.606Z,72.22
2023-02-24T02:26:00.871Z,75.42
2023-02-24T02:28:54.296Z,71.53
2023-02-24T02:31:29.246Z,77.13
2023-02-24T02:34:05.743Z,75.79
2023-02-24T02:37:00.848Z,75.00
2023-02-24T02:39:37.222Z,75.25
2023-02-24T02:42:19.582Z,75.05
2023-02-24T02:45:05.545Z,73.46
2023-02-24T02:47:41.515Z,74.36
2023-02-24T02:50:20.288Z,74.00
2023-02-24T02:52:54.278Z,72.76
2023-02-24T02:55:56.629Z,74.19
2023-02-24T02:58:35.425Z,74.64
2023-02-24T03:01:04.701Z,75.04
2023-02-24T03:03:54.284Z,73.05
2023-02-24T03:06:32.277Z,71.47
2023-02-24T03:09:16.537Z,71.65
2023-02-24T03:11:54.153Z,73.08
2023-02-24T03:14:26.897Z,72.91
2023-02-24T03:16:56.113Z,74.51
2023-02-24T03:19:37.918Z,78.63
2023-02-24T03:22:14.297Z,82.81
2023-02-24T03:24:44.762Z,80.66
2023-02-24T03:27:28.677Z,78.55
2023-02-24T03:30:13.201Z,79.69
2023-02-24T03:33:02.864Z,79.76
2023-02-24T03:35:34.502Z,81.19
2023-02-24T03:38:01.809Z,78.69
2023-02-24T03:40:30.287Z,78.04
2023-02-24T03:43:09.288Z,80.81
2023-02-24T03:45:38.916Z,79.57
2023-02-24T03:48:08.424Z,79.87
2023-02-24T03:50:38.334Z,79.90
2023-02-24T03:53:23.682Z,80.68
2023-02-24T03:56:03.764Z,80.32
2023-02-24T03:58:58.196Z,79.84
2023-02-24T04:01:58.157Z,79.34
2023-02-24T04:04:47.007Z,81.49
2023-02-24T04:07:23.995Z,79.49
2023-02-24T04:10:02.938Z,80.83
2023-02-24T04:12:32.389Z,79.94
2023-02-24T04:15:09.391Z,77.34
2023-02-24T04:18:03.560Z,78.46
2023-02-24T04:20:34.430Z,81.60
2023-02-24T04:23:10.847Z,78.53
2023-02-24T04:25:40.648Z,79.09
2023-02-24T04:28:10.733Z,80.93
2023-02-24T04:30:42.760Z,78.17
2023-02-24T04:33:10.331Z,78.24
2023-02-24T04:35:38.118Z,78.88
2023-02-24T04:38:05.597Z,77.96
2023-02-24T04:40:32.669Z,78.37
2023-02-24T04:42:59.629Z,78.08
2023-02-24T04:45:29.496Z,76.96
2023-02-24T04:48:01.233Z,75.75
2023-02-24T04:50:34.826Z,74.97
2023-02-24T04:53:10.333Z,76.98
2023-02-24T04:55:40.818Z,75.42
2023-02-24T04:58:11.956Z,74.46
2023-02-24T05:00:41.778Z,73.81
2023-02-24T05:03:11.196Z,73.50
2023-02-24T05:05:38.572Z,72.71
2023-02-24T05:08:11.195Z,72.39
2023-02-24T05:10:49.723Z,72.67
2023-02-24T05:13:19.999Z,73.22
2023-02-24T05:15:48.306Z,72.68
2023-02-24T05:18:26.143Z,73.71
2023-02-24T05:21:13.968Z,74.06
2023-02-24T05:23:46.150Z,72.97
2023-02-24T05:26:19.168Z,71.77
2023-02-24T05:28:52.412Z,71.46
2023-02-24T05:31:26.968Z,71.44
2023-02-24T05:34:04.531Z,71.50
2023-02-24T05:36:40.438Z,71.08
2023-02-24T05:39:09.743Z,71.15
2023-02-24T05:41:41.878Z,70.97
2023-02-24T05:44:12.857Z,70.79
2023-02-24T05:46:44.827Z,71.21
2023-02-24T05:49:28.831Z,71.30
2023-02-24T05:52:00.409Z,72.56
2023-02-24T05:54:31.380Z,71.65
2023-02-24T05:57:12.213Z,71.64
2023-02-24T05:59:43.644Z,72.20
2023-02-24T06:02:16.106Z,71.47
2023-02-24T06:04:51.489Z,71.89
2023-02-24T06:07:28.135Z,71.61
2023-02-24T06:09:58.022Z,72.28
2023-02-24T06:12:27.504Z,71.92
2023-02-24T06:14:54.910Z,71.94
2023-02-24T06:17:23.108Z,72.94
2023-02-24T06:19:52.499Z,72.84
2023-02-24T06:22:23.179Z,73.56
2023-02-24T06:24:50.708Z,72.67
2023-02-24T06:27:21.914Z,72.10
2023-02-24T06:29:51.154Z,71.70
2023-02-24T06:32:24.142Z,71.88
2023-02-24T06:34:52.101Z,72.67
2023-02-24T06:37:23.421Z,71.77
2023-02-24T06:39:50.907Z,71.70
2023-02-24T06:42:35.876Z,72.12
2023-02-24T06:45:25.903Z,72.91
2023-02-24T06:52:26.154Z,71.73
2023-02-24T06:54:57.990Z,72.88
2023-02-24T06:57:25.614Z,71.38
2023-02-24T06:59:53.132Z,72.39
2023-02-24T07:02:20.478Z,71.83
2023-02-24T07:04:47.913Z,73.55
2023-02-24T07:07:19.151Z,75.81
2023-02-24T07:09:46.338Z,75.06
2023-02-24T07:12:13.524Z,73.09
2023-02-24T07:14:41.082Z,72.31
2023-02-24T07:17:08.939Z,72.57
2023-02-24T07:19:39.481Z,72.26
2023-02-24T07:22:12.831Z,72.29
2023-02-24T07:24:52.441Z,73.79
2023-02-24T07:27:29.336Z,72.69
2023-02-24T07:29:59.644Z,72.48
2023-02-24T07:32:26.846Z,70.93
2023-02-24T07:34:53.970Z,70.69
2023-02-24T07:37:21.491Z,69.45
2023-02-24T07:39:50.007Z,68.84
2023-02-24T07:42:22.889Z,68.56
2023-02-24T07:44:50.351Z,68.82
2023-02-24T07:47:17.587Z,69.12
2023-02-24T07:49:45.804Z,67.91
2023-02-24T07:52:20.701Z,68.28
2023-02-24T07:54:56.056Z,67.98
2023-02-24T07:57:25.500Z,67.46
2023-02-24T07:59:55.760Z,68.25
2023-02-24T08:02:27.374Z,68.33
2023-02-24T08:04:58.481Z,68.34
2023-02-24T08:07:35.465Z,66.88
2023-02-24T08:10:24.545Z,67.08
2023-02-24T08:13:00.573Z,66.91
2023-02-24T08:15:34.808Z,66.04
2023-02-24T08:18:12.766Z,65.52
2023-02-24T08:21:04.438Z,65.74
2023-02-24T08:24:11.083Z,65.40
2023-02-24T08:27:20.662Z,63.39
2023-02-24T08:30:03.302Z,61.71
2023-02-24T08:32:46.190Z,61.74
2023-02-24T08:35:27.509Z,62.54
2023-02-24T08:37:58.163Z,60.55
2023-02-24T08:40:49.517Z,61.43
2023-02-24T08:43:37.861Z,59.14
2023-02-24T08:46:14.031Z,61.10
2023-02-24T08:48:46.857Z,59.81
2023-02-24T08:51:25.418Z,60.80
2023-02-24T08:54:15.759Z,62.91
2023-02-24T08:57:01.410Z,61.06
2023-02-24T09:01:15.445Z,61.56
2023-02-24T09:07:43.601Z,57.33
2023-02-24T09:13:38.791Z,54.50
2023-02-24T09:16:06.730Z,52.05
2023-02-24T09:18:38.644Z,53.89
2023-02-24T09:21:44.007Z,55.10
2023-02-24T09:24:21.596Z,53.21
2023-02-24T09:26:51.734Z,53.56
2023-02-24T09:29:36.512Z,52.41
2023-02-24T09:32:17.253Z,51.13
2023-02-24T09:34:51.214Z,50.70
2023-02-24T09:37:27.739Z,51.50
2023-02-24T09:39:58.071Z,50.81
2023-02-24T09:42:53.071Z,52.32
2023-02-24T09:45:46.391Z,53.89
2023-02-24T09:48:23.957Z,53.49
2023-02-24T09:51:08.445Z,51.28
2023-02-24T09:53:41.736Z,49.57
2023-02-24T09:56:41.408Z,49.68
2023-02-24T09:59:11.964Z,46.42
2023-02-24T10:01:51.120Z,47.71
2023-02-24T10:04:53.588Z,47.36
2023-02-24T10:07:38.664Z,44.37
2023-02-24T10:10:32.022Z,42.57
2023-02-24T10:13:37.911Z,43.55
2023-02-24T10:16:11.224Z,42.33
2023-02-24T10:18:48.719Z,41.51
2023-02-24T10:21:59.220Z,41.63
2023-02-24T10:24:50.206Z,43.34
2023-02-24T10:27:25.506Z,43.68
2023-02-24T10:30:28.256Z,43.32
2023-02-24T10:33:05.673Z,41.42
2023-02-24T10:35:56.289Z,40.92
2023-02-24T10:39:12.766Z,37.92
2023-02-24T10:42:27.246Z,39.55
2023-02-24T10:45:24.121Z,39.04
2023-02-24T10:47:59.951Z,37.57
2023-02-24T10:50:55.042Z,37.61
2023-02-24T10:53:40.117Z,34.79
2023-02-24T10:56:28.619Z,33.88
2023-02-24T10:59:25.297Z,33.74
2023-02-24T11:02:37.629Z,33.82
2023-02-24T11:05:37.802Z,33.58
2023-02-24T11:08:35.192Z,35.54
2023-02-24T11:11:26.221Z,33.35
2023-02-24T11:14:35.759Z,34.90
2023-02-24T11:17:21.820Z,38.34
2023-02-24T11:19:55.522Z,36.28
2023-02-24T11:22:28.083Z,35.01
2023-02-24T11:24:55.036Z,35.10
2023-02-24T11:27:25.371Z,34.48
2023-02-24T11:30:15.422Z,33.10
2023-02-24T11:33:01.646Z,31.79
2023-02-24T11:35:43.730Z,31.52
2023-02-24T11:38:43.917Z,31.02
2023-02-24T11:41:16.794Z,30.61
2023-02-24T11:43:55.449Z,31.09
2023-02-24T11:46:40.152Z,30.27
2023-02-24T11:49:27.280Z,30.12
2023-02-24T11:51:58.311Z,30.40
2023-02-24T11:54:26.924Z,29.96
2023-02-24T11:57:01.639Z,30.96
2023-02-24T11:59:38.640Z,30.52
2023-02-24T12:02:14.690Z,29.64
2023-02-24T12:05:04.852Z,29.60
2023-02-24T12:07:53.152Z,30.37
2023-02-24T12:10:41.804Z,28.90
2023-02-24T12:13:12.206Z,28.96
2023-02-24T12:15:44.560Z,29.85
2023-02-24T12:18:34.276Z,28.58
2023-02-24T12:21:07.870Z,28.43
2023-02-24T12:23:42.347Z,28.13
2023-02-24T12:26:24.433Z,28.99
2023-02-24T12:29:16.462Z,29.35
2023-02-24T12:31:55.936Z,29.20
2023-02-24T12:34:35.208Z,28.72
2023-02-24T12:37:22.536Z,28.52
2023-02-24T12:40:01.911Z,29.45
2023-02-24T12:42:35.163Z,29.54
2023-02-24T12:45:34.970Z,30.04
2023-02-24T12:48:13.760Z,29.74
2023-02-24T12:50:59.231Z,30.05
2023-02-24T12:53:39.433Z,30.89
2023-02-24T12:56:31.718Z,29.81
2023-02-24T12:59:05.883Z,29.93
2023-02-24T13:01:42.322Z,29.96
2023-02-24T13:04:22.726Z,31.68
2023-02-24T13:07:15.143Z,31.04
2023-02-24T13:10:26.060Z,31.54
2023-02-24T13:13:22.838Z,30.93
2023-02-24T13:16:11.724Z,31.17
2023-02-24T13:19:08.273Z,31.10
2023-02-24T13:21:38.670Z,30.79
2023-02-24T13:24:27.718Z,31.61
2023-02-24T13:27:10.357Z,32.21
2023-02-24T13:29:57.155Z,31.57
2023-02-24T13:32:33.024Z,32.41
2023-02-24T13:35:05.663Z,33.14
2023-02-24T13:37:39.903Z,32.19
2023-02-24T13:40:19.411Z,32.39
2023-02-24T13:43:02.252Z,32.55
2023-02-24T13:45:35.309Z,32.55
2023-02-24T13:48:37.168Z,32.14
2023-02-24T13:51:30.980Z,32.93
2023-02-24T13:54:21.684Z,33.00
2023-02-24T13:57:33.059Z,32.88
2023-02-24T14:00:26.406Z,32.46
2023-02-24T14:02:54.811Z,32.90
2023-02-24T14:05:36.732Z,32.04
2023-02-24T14:08:09.462Z,31.81
2023-02-24T14:10:38.012Z,31.28
2023-02-24T14:13:15.703Z,31.67
2023-02-24T14:15:45.481Z,31.78
2023-02-24T14:18:46.657Z,31.76
2023-02-24T14:21:37.460Z,32.61
2023-02-24T14:24:16.254Z,32.91
2023-02-24T14:26:54.465Z,32.63
2023-02-24T14:29:43.667Z,32.90
2023-02-24T14:32:32.400Z,33.08
2023-02-24T14:35:01.862Z,33.79
2023-02-24T14:37:31.432Z,33.20
2023-02-24T14:40:04.310Z,33.01
2023-02-24T14:42:34.002Z,33.01
2023-02-24T14:45:28.586Z,33.52
2023-02-24T14:47:59.732Z,33.09
2023-02-24T14:50:56.765Z,32.98
2023-02-24T14:53:30.238Z,33.09
2023-02-24T14:58:57.593Z,33.59
2023-02-24T15:01:40.177Z,34.65
2023-02-24T15:04:39.677Z,34.99
2023-02-24T15:07:17.583Z,35.38
2023-02-24T15:09:54.940Z,36.36
2023-02-24T15:12:51.347Z,35.49
2023-02-24T15:15:22.558Z,36.13
2023-02-24T15:18:04.645Z,36.38
2023-02-24T15:20:37.838Z,36.73
2023-02-24T15:23:05.976Z,37.04
2023-02-24T15:25:47.880Z,37.19
2023-02-24T15:28:35.879Z,37.13
2023-02-24T15:31:16.276Z,38.12
2023-02-24T15:33:53.136Z,38.33
2023-02-24T15:36:25.941Z,39.21
2023-02-24T15:39:03.505Z,38.46
2023-02-24T15:41:41.658Z,39.69
2023-02-24T15:44:30.924Z,39.01
2023-02-24T15:46:59.536Z,39.58
2023-02-24T15:49:26.555Z,39.51
2023-02-24T15:51:55.671Z,39.72
2023-02-24T15:54:29.592Z,39.84
2023-02-24T15:57:00.748Z,40.03
2023-02-24T15:59:29.185Z,41.18
2023-02-24T16:01:56.247Z,41.54
2023-02-24T16:04:25.923Z,41.78
2023-02-24T16:06:56.807Z,42.55
2023-02-24T16:09:46.531Z,42.37
2023-02-24T16:12:15.656Z,42.18
2023-02-24T16:14:43.788Z,42.76
2023-02-24T16:17:34.257Z,43.39
2023-02-24T16:20:02.147Z,43.09
2023-02-24T16:22:29.668Z,43.79
2023-02-24T16:24:56.663Z,44.78
2023-02-24T16:27:26.218Z,44.61
2023-02-24T16:29:53.679Z,45.02
2023-02-24T16:32:25.956Z,44.79
2023-02-24T16:34:53.998Z,44.59
2023-02-24T16:37:28.036Z,44.71
2023-02-24T16:39:57.849Z,43.93
2023-02-24T16:42:24.776Z,43.76
2023-02-24T16:44:51.647Z,43.61
2023-02-24T16:47:25.452Z,44.04
2023-02-24T16:49:56.459Z,44.63
2023-02-24T16:52:25.136Z,45.58
2023-02-24T16:54:52.193Z,46.98
2023-02-24T16:57:21.161Z,46.92
2023-02-24T16:59:48.056Z,46.99
2023-02-24T17:02:24.033Z,46.22
2023-02-24T17:04:50.994Z,46.32
2023-02-24T17:07:20.672Z,46.67
2023-02-24T17:09:47.456Z,46.21
2023-02-24T17:12:17.496Z,46.32
2023-02-24T17:14:44.499Z,47.12
2023-02-24T17:17:11.888Z,48.65
2023-02-24T17:19:39.471Z,48.46
2023-02-24T17:22:06.437Z,48.56
2023-02-24T17:24:33.463Z,49.37
2023-02-24T17:27:01.272Z,48.98
2023-02-24T17:29:28.389Z,49.32
2023-02-24T17:31:55.625Z,49.89
2023-02-24T17:34:24.464Z,49.65
2023-02-24T17:36:51.678Z,49.87
2023-02-24T17:39:18.787Z,48.99
2023-02-24T17:41:45.942Z,48.48
2023-02-24T17:44:12.984Z,50.01
2023-02-24T17:46:40.155Z,49.33
2023-02-24T17:49:07.313Z,49.28
2023-02-24T17:51:34.275Z,48.89
2023-02-24T17:54:03.249Z,49.23
2023-02-24T17:56:30.291Z,50.77
2023-02-24T17:59:01.174Z,49.33
2023-02-24T18:01:28.423Z,50.51
2023-02-24T18:03:57.824Z,52.13
2023-02-24T18:06:25.624Z,52.19
2023-02-24T18:08:52.615Z,53.56
2023-02-24T18:11:22.427Z,53.68
2023-02-24T18:13:52.838Z,52.98
2023-02-24T18:16:20.257Z,53.70
2023-02-24T18:18:47.581Z,54.98
2023-02-24T18:21:14.529Z,54.78
2023-02-24T18:23:41.685Z,56.77
2023-02-24T18:26:11.009Z,58.22
2023-02-24T18:28:38.012Z,58.22
2023-02-24T18:31:19.938Z,59.32
2023-02-24T18:33:47.164Z,58.48
2023-02-24T18:36:14.812Z,57.71
2023-02-24T18:38:42.151Z,56.99
2023-02-24T18:41:12.112Z,57.41
2023-02-24T18:43:38.852Z,58.37
2023-02-24T18:46:08.466Z,57.42
2023-02-24T18:48:37.829Z,59.38
2023-02-24T18:51:04.990Z,58.36
2023-02-24T18:53:37.072Z,59.71
2023-02-24T18:56:06.940Z,58.93
2023-02-24T18:58:34.156Z,58.58
2023-02-24T19:01:01.768Z,58.53
2023-02-24T19:03:28.772Z,60.97
2023-02-24T19:05:55.702Z,60.93
2023-02-24T19:08:22.619Z,60.08
2023-02-24T19:10:49.512Z,59.28
2023-02-24T19:13:16.488Z,61.86
2023-02-24T19:15:44.947Z,63.15
2023-02-24T19:18:12.014Z,61.64
2023-02-24T19:20:43.133Z,62.89
2023-02-24T19:23:10.669Z,64.99
2023-02-24T19:25:37.714Z,60.96
2023-02-24T19:28:04.879Z,60.88
2023-02-24T19:30:32.106Z,59.93
2023-02-24T19:32:59.209Z,60.81
2023-02-24T19:35:26.590Z,60.52
2023-02-24T19:37:53.638Z,59.57
2023-02-24T19:40:20.878Z,58.59
2023-02-24T19:42:49.596Z,60.04
2023-02-24T19:45:17.307Z,59.35
2023-02-24T19:47:47.112Z,58.83
2023-02-24T19:50:14.707Z,58.66
2023-02-24T19:52:43.029Z,58.13
2023-02-24T19:55:12.572Z,58.33
2023-02-24T19:57:39.582Z,58.98
2023-02-24T20:00:07.587Z,59.32
2023-02-24T20:02:34.521Z,59.05
2023-02-24T20:05:01.507Z,59.59
2023-02-24T20:07:28.521Z,59.22
2023-02-24T20:09:55.555Z,58.49
2023-02-24T20:12:23.012Z,59.18
2023-02-24T20:14:51.500Z,60.75
2023-02-24T20:17:18.557Z,61.74
2023-02-24T20:19:45.530Z,61.17
2023-02-24T20:22:12.693Z,61.63
2023-02-24T20:24:39.580Z,61.01
2023-02-24T20:27:06.649Z,60.91
2023-02-24T20:29:35.304Z,61.50
2023-02-24T20:32:03.732Z,61.61
2023-02-24T20:34:30.775Z,60.92
2023-02-24T20:36:57.929Z,61.45
2023-02-24T20:39:25.077Z,62.22
2023-02-24T20:41:54.788Z,63.18
2023-02-24T20:44:21.701Z,63.24
2023-02-24T20:46:48.729Z,63.00
2023-02-24T20:49:15.734Z,62.67
2023-02-24T20:51:43.770Z,62.74
2023-02-24T20:54:12.690Z,62.96
2023-02-24T20:56:41.262Z,63.04
2023-02-24T20:59:17.494Z,63.84
2023-02-24T21:01:47.607Z,63.56
2023-02-24T21:04:16.474Z,63.53
2023-02-24T21:06:43.612Z,63.44
2023-02-24T21:09:12.217Z,63.01
2023-02-24T21:11:39.524Z,64.61
2023-02-24T21:14:07.408Z,64.56
2023-02-24T21:16:37.819Z,63.89
2023-02-24T21:19:04.834Z,63.41
2023-02-24T21:21:31.803Z,64.41
2023-02-24T21:23:58.674Z,64.85
2023-02-24T21:26:27.219Z,64.40
2023-02-24T21:28:57.679Z,64.09
2023-02-24T21:31:25.799Z,65.71
2023-02-24T21:33:53.634Z,64.56
2023-02-24T21:36:23.874Z,63.32
2023-02-24T21:38:51.386Z,64.18
2023-02-24T21:41:21.669Z,64.09
2023-02-24T21:43:52.548Z,64.02
2023-02-24T21:46:19.582Z,62.31
2023-02-24T21:48:46.683Z,62.45
2023-02-24T21:51:14.018Z,62.25
2023-02-24T21:53:44.589Z,64.12
2023-02-24T21:56:18.080Z,65.20
2023-02-24T21:58:47.978Z,65.79
2023-02-24T22:01:17.143Z,65.42
2023-02-24T22:03:44.680Z,68.16
2023-02-24T22:06:14.759Z,66.85
2023-02-24T22:08:45.678Z,66.72
2023-02-24T22:11:17.385Z,64.72
2023-02-24T22:13:45.882Z,65.88
2023-02-24T22:16:16.349Z,65.21
2023-02-24T22:18:43.232Z,68.42
2023-02-24T22:21:12.698Z,69.34
2023-02-24T22:23:40.454Z,68.26
2023-02-24T22:26:09.588Z,69.49
2023-02-24T22:28:39.169Z,71.72
2023-02-24T22:31:07.643Z,71.50
2023-02-24T22:33:37.751Z,72.24
2023-02-24T22:36:06.844Z,70.19
2023-02-24T22:38:35.484Z,70.33
2023-02-24T22:41:10.867Z,72.78
2023-02-24T22:43:37.758Z,73.70
2023-02-24T22:46:12.327Z,72.30
2023-02-24T22:48:39.590Z,71.40
2023-02-24T22:51:08.784Z,72.43
2023-02-24T22:53:38.992Z,72.11
2023-02-24T22:56:07.256Z,74.67
2023-02-24T22:58:34.387Z,72.65
2023-02-24T23:01:01.422Z,71.90
2023-02-24T23:03:31.223Z,75.54
2023-02-24T23:06:03.014Z,75.04
2023-02-24T23:08:33.182Z,73.51
2023-02-24T23:11:30.894Z,75.69
2023-02-24T23:14:01.589Z,75.02
2023-02-24T23:16:31.931Z,73.05
2023-02-24T23:19:01.128Z,73.58
2023-02-24T23:21:39.488Z,71.34
2023-02-24T23:24:08.415Z,75.03
2023-02-24T23:26:38.460Z,75.72
2023-02-24T23:29:06.466Z,75.70
2023-02-24T23:31:33.840Z,74.25
2023-02-24T23:34:01.855Z,74.67
2023-02-24T23:36:28.939Z,75.33
2023-02-24T23:38:57.567Z,74.05
2023-02-24T23:41:24.464Z,75.13
2023-02-24T23:43:51.387Z,75.34
2023-02-24T23:46:18.352Z,71.76
2023-02-24T23:48:46.044Z,69.25
2023-02-24T23:51:14.282Z,70.72
2023-02-24T23:53:43.737Z,70.09
2023-02-24T23:56:21.837Z,70.11
2023-02-24T23:58:54.296Z,71.33
